sensor_id;sensor_type;location;lat;lon;timestamp;P1;durP1;ratioP1;P2;durP2;ratioP2
24151;SDS011;12311;50.866;4.332;2023-02-28T07:00:42;7.13;;;3.17;;
24151;SDS011;12311;50.866;4.332;2023-02-28T07:03:08;7.35;;;3.47;;
24151;SDS011;12311;50.866;4.332;2023-02-28T07:05:35;4.28;;;2.60;;
24151;SDS011;12311;50.866;4.332;2023-02-28T07:08:01;8.52;;;3.53;;
24151;SDS011;12311;50.866;4.332;2023-02-28T07:10:28;5.55;;;3.10;;
24151;SDS011;12311;50.866;4.332;2023-02-28T07:12:54;7.78;;;2.83;;
24151;SDS011;12311;50.866;4.332;2023-02-28T07:15:19;7.55;;;4.07;;
24151;SDS011;12311;50.866;4.332;2023-02-28T07:17:45;3.50;;;2.78;;
24151;SDS011;12311;50.866;4.332;2023-02-28T07:20:11;7.15;;;2.97;;
24151;SDS011;12311;50.866;4.332;2023-02-28T07:22:37;7.22;;;3.25;;
24151;SDS011;12311;50.866;4.332;2023-02-28T07:25:03;5.03;;;2.72;;
24151;SDS011;12311;50.866;4.332;2023-02-28T07:27:30;6.05;;;3.33;;
24151;SDS011;12311;50.866;4.332;2023-02-28T07:29:55;13.48;;;3.22;;
24151;SDS011;12311;50.866;4.332;2023-02-28T07:32:21;16.52;;;3.42;;
24151;SDS011;12311;50.866;4.332;2023-02-28T07:34:47;5.88;;;2.65;;
24151;SDS011;12311;50.866;4.332;2023-02-28T07:37:13;5.13;;;3.08;;
24151;SDS011;12311;50.866;4.332;2023-02-28T07:39:39;5.20;;;3.17;;
24151;SDS011;12311;50.866;4.332;2023-02-28T07:42:08;4.93;;;2.90;;
24151;SDS011;12311;50.866;4.332;2023-02-28T07:44:36;11.30;;;3.38;;
24151;SDS011;12311;50.866;4.332;2023-02-28T07:47:11;5.25;;;2.85;;
24151;SDS011;12311;50.866;4.332;2023-02-28T07:49:37;7.70;;;2.85;;
24151;SDS011;12311;50.866;4.332;2023-02-28T07:52:05;3.60;;;2.95;;
24151;SDS011;12311;50.866;4.332;2023-02-28T07:54:32;8.98;;;3.10;;
24151;SDS011;12311;50.866;4.332;2023-02-28T07:56:58;18.85;;;2.72;;
24151;SDS011;12311;50.866;4.332;2023-02-28T07:59:23;6.10;;;3.33;;
24151;SDS011;12311;50.866;4.332;2023-02-28T08:01:49;4.07;;;2.15;;
24151;SDS011;12311;50.866;4.332;2023-02-28T08:04:16;5.20;;;3.13;;
24151;SDS011;12311;50.866;4.332;2023-02-28T08:06:42;3.08;;;2.22;;
24151;SDS011;12311;50.866;4.332;2023-02-28T08:09:08;5.85;;;2.58;;
24151;SDS011;12311;50.866;4.332;2023-02-28T08:11:34;9.63;;;3.72;;
24151;SDS011;12311;50.866;4.332;2023-02-28T08:14:00;3.33;;;1.70;;
24151;SDS011;12311;50.866;4.332;2023-02-28T08:16:25;5.32;;;2.42;;
24151;SDS011;12311;50.866;4.332;2023-02-28T08:18:51;5.75;;;2.47;;
24151;SDS011;12311;50.866;4.332;2023-02-28T08:21:18;2.92;;;1.42;;
24151;SDS011;12311;50.866;4.332;2023-02-28T08:23:46;4.90;;;2.85;;
24151;SDS011;12311;50.866;4.332;2023-02-28T08:26:12;3.42;;;2.55;;
24151;SDS011;12311;50.866;4.332;2023-02-28T08:28:38;1.95;;;1.52;;
24151;SDS011;12311;50.866;4.332;2023-02-28T08:31:11;4.03;;;2.35;;
24151;SDS011;12311;50.866;4.332;2023-02-28T08:33:38;3.92;;;1.80;;
24151;SDS011;12311;50.866;4.332;2023-02-28T08:36:05;4.28;;;2.10;;
24151;SDS011;12311;50.866;4.332;2023-02-28T08:38:32;2.75;;;1.85;;
24151;SDS011;12311;50.866;4.332;2023-02-28T08:40:59;3.22;;;1.58;;
24151;SDS011;12311;50.866;4.332;2023-02-28T08:43:27;2.25;;;1.45;;
24151;SDS011;12311;50.866;4.332;2023-02-28T08:45:54;11.18;;;1.55;;
24151;SDS011;12311;50.866;4.332;2023-02-28T08:48:22;4.80;;;1.60;;
24151;SDS011;12311;50.866;4.332;2023-02-28T08:50:58;5.85;;;2.25;;
24151;SDS011;12311;50.866;4.332;2023-02-28T08:53:28;2.15;;;1.30;;
24151;SDS011;12311;50.866;4.332;2023-02-28T08:56:01;3.00;;;1.40;;
24151;SDS011;12311;50.866;4.332;2023-02-28T08:58:28;13.70;;;1.80;;
24151;SDS011;12311;50.866;4.332;2023-02-28T09:00:54;8.70;;;2.00;;
24151;SDS011;12311;50.866;4.332;2023-02-28T09:03:21;2.92;;;1.65;;
24151;SDS011;12311;50.866;4.332;2023-02-28T09:05:58;1.58;;;1.35;;
24151;SDS011;12311;50.866;4.332;2023-02-28T09:08:26;2.88;;;1.60;;
24151;SDS011;12311;50.866;4.332;2023-02-28T09:10:55;3.33;;;1.95;;
24151;SDS011;12311;50.866;4.332;2023-02-28T09:13:23;2.15;;;1.48;;
24151;SDS011;12311;50.866;4.332;2023-02-28T09:15:49;4.10;;;1.98;;
24151;SDS011;12311;50.866;4.332;2023-02-28T09:18:16;3.50;;;1.88;;
24151;SDS011;12311;50.866;4.332;2023-02-28T09:20:42;3.33;;;1.73;;
24151;SDS011;12311;50.866;4.332;2023-02-28T09:23:09;6.53;;;2.00;;
24151;SDS011;12311;50.866;4.332;2023-02-28T09:25:35;2.05;;;1.23;;
24151;SDS011;12311;50.866;4.332;2023-02-28T09:28:02;3.97;;;1.58;;
24151;SDS011;12311;50.866;4.332;2023-02-28T09:30:28;2.88;;;1.67;;
24151;SDS011;12311;50.866;4.332;2023-02-28T09:32:54;1.60;;;1.35;;
24151;SDS011;12311;50.866;4.332;2023-02-28T09:35:21;5.40;;;1.90;;
24151;SDS011;12311;50.866;4.332;2023-02-28T09:37:47;2.70;;;1.70;;
24151;SDS011;12311;50.866;4.332;2023-02-28T09:40:14;1.55;;;1.30;;
24151;SDS011;12311;50.866;4.332;2023-02-28T09:42:43;2.35;;;1.67;;
24151;SDS011;12311;50.866;4.332;2023-02-28T09:45:24;1.60;;;1.20;;
24151;SDS011;12311;50.866;4.332;2023-02-28T09:48:11;1.95;;;1.13;;
24151;SDS011;12311;50.866;4.332;2023-02-28T09:50:45;1.80;;;1.40;;
24151;SDS011;12311;50.866;4.332;2023-02-28T09:53:29;1.83;;;1.17;;
24151;SDS011;12311;50.866;4.332;2023-02-28T09:56:04;1.75;;;1.45;;
24151;SDS011;12311;50.866;4.332;2023-02-28T09:58:49;1.30;;;1.20;;
24151;SDS011;12311;50.866;4.332;2023-02-28T10:01:23;2.25;;;1.60;;
24151;SDS011;12311;50.866;4.332;2023-02-28T10:04:37;2.05;;;1.20;;
24151;SDS011;12311;50.866;4.332;2023-02-28T10:06:54;1.80;;;1.42;;
24151;SDS011;12311;50.866;4.332;2023-02-28T10:09:23;1.60;;;1.25;;
24151;SDS011;12311;50.866;4.332;2023-02-28T10:11:52;2.92;;;1.65;;
24151;SDS011;12311;50.866;4.332;2023-02-28T10:14:25;0.77;;;0.77;;
24151;SDS011;12311;50.866;4.332;2023-02-28T10:16:55;2.72;;;1.42;;
24151;SDS011;12311;50.866;4.332;2023-02-28T10:22:00;3.58;;;1.77;;
24151;SDS011;12311;50.866;4.332;2023-02-28T10:24:39;2.70;;;1.30;;
24151;SDS011;12311;50.866;4.332;2023-02-28T10:27:20;1.73;;;1.25;;
24151;SDS011;12311;50.866;4.332;2023-02-28T10:29:51;1.30;;;1.20;;
24151;SDS011;12311;50.866;4.332;2023-02-28T10:32:20;1.48;;;1.25;;
24151;SDS011;12311;50.866;4.332;2023-02-28T10:34:51;1.27;;;0.98;;
24151;SDS011;12311;50.866;4.332;2023-02-28T10:37:26;2.05;;;1.30;;
24151;SDS011;12311;50.866;4.332;2023-02-28T10:39:52;1.10;;;1.00;;
24151;SDS011;12311;50.866;4.332;2023-02-28T10:42:25;5.20;;;1.60;;
24151;SDS011;12311;50.866;4.332;2023-02-28T10:47:48;3.40;;;0.88;;
24151;SDS011;12311;50.866;4.332;2023-02-28T10:50:33;2.22;;;1.05;;
24151;SDS011;12311;50.866;4.332;2023-02-28T10:56:02;0.95;;;0.80;;
24151;SDS011;12311;50.866;4.332;2023-02-28T10:58:30;1.60;;;1.00;;
24151;SDS011;12311;50.866;4.332;2023-02-28T11:01:56;9.73;;;1.27;;
24151;SDS011;12311;50.866;4.332;2023-02-28T11:07:17;1.08;;;0.77;;
24151;SDS011;12311;50.866;4.332;2023-02-28T11:09:46;0.70;;;0.70;;
24151;SDS011;12311;50.866;4.332;2023-02-28T11:12:19;4.63;;;0.95;;
24151;SDS011;12311;50.866;4.332;2023-02-28T11:14:52;1.25;;;0.95;;
24151;SDS011;12311;50.866;4.332;2023-02-28T11:17:27;1.60;;;1.40;;
24151;SDS011;12311;50.866;4.332;2023-02-28T11:19:57;1.55;;;1.10;;
24151;SDS011;12311;50.866;4.332;2023-02-28T11:22:28;1.35;;;1.23;;
24151;SDS011;12311;50.866;4.332;2023-02-28T11:24:58;4.13;;;1.42;;
24151;SDS011;12311;50.866;4.332;2023-02-28T11:29:55;1.52;;;1.30;;
24151;SDS011;12311;50.866;4.332;2023-02-28T11:32:21;1.13;;;0.95;;
24151;SDS011;12311;50.866;4.332;2023-02-28T11:37:48;2.72;;;1.27;;
24151;SDS011;12311;50.866;4.332;2023-02-28T11:40:18;1.60;;;1.20;;
24151;SDS011;12311;50.866;4.332;2023-02-28T12:05:26;4.22;;;1.00;;
24151;SDS011;12311;50.866;4.332;2023-02-28T12:14:03;1.98;;;1.20;;
24151;SDS011;12311;50.866;4.332;2023-02-28T12:22:27;3.40;;;1.55;;
24151;SDS011;12311;50.866;4.332;2023-02-28T12:27:31;3.05;;;1.60;;
24151;SDS011;12311;50.866;4.332;2023-02-28T12:30:03;2.83;;;1.50;;
24151;SDS011;12311;50.866;4.332;2023-02-28T12:33:06;2.22;;;1.60;;
24151;SDS011;12311;50.866;4.332;2023-02-28T12:35:38;2.75;;;1.40;;
24151;SDS011;12311;50.866;4.332;2023-02-28T12:38:12;2.97;;;1.00;;
24151;SDS011;12311;50.866;4.332;2023-02-28T12:40:52;2.80;;;1.75;;
24151;SDS011;12311;50.866;4.332;2023-02-28T12:43:22;3.15;;;1.45;;
24151;SDS011;12311;50.866;4.332;2023-02-28T12:45:56;5.72;;;1.50;;
24151;SDS011;12311;50.866;4.332;2023-02-28T12:48:31;4.03;;;1.40;;
24151;SDS011;12311;50.866;4.332;2023-02-28T12:51:03;2.60;;;1.45;;
24151;SDS011;12311;50.866;4.332;2023-02-28T12:56:42;1.90;;;1.30;;
24151;SDS011;12311;50.866;4.332;2023-02-28T13:07:40;1.92;;;1.10;;
24151;SDS011;12311;50.866;4.332;2023-02-28T13:10:16;2.10;;;1.20;;
24151;SDS011;12311;50.866;4.332;2023-02-28T13:12:47;6.15;;;1.75;;
24151;SDS011;12311;50.866;4.332;2023-02-28T13:15:22;2.55;;;1.65;;
24151;SDS011;12311;50.866;4.332;2023-02-28T13:17:54;5.30;;;2.00;;
24151;SDS011;12311;50.866;4.332;2023-02-28T13:20:23;3.45;;;1.95;;
24151;SDS011;12311;50.866;4.332;2023-02-28T13:22:59;2.38;;;1.45;;
24151;SDS011;12311;50.866;4.332;2023-02-28T13:38:44;2.63;;;1.27;;
24151;SDS011;12311;50.866;4.332;2023-02-28T13:44:09;1.70;;;0.98;;
24151;SDS011;12311;50.866;4.332;2023-02-28T13:57:10;2.33;;;1.30;;
24151;SDS011;12311;50.866;4.332;2023-02-28T14:05:14;2.20;;;1.52;;
24151;SDS011;12311;50.866;4.332;2023-02-28T14:07:47;1.50;;;1.15;;
24151;SDS011;12311;50.866;4.332;2023-02-28T14:13:36;1.42;;;1.00;;
24151;SDS011;12311;50.866;4.332;2023-02-28T14:16:09;3.05;;;1.30;;
24151;SDS011;12311;50.866;4.332;2023-02-28T14:18:37;1.60;;;1.00;;
24151;SDS011;12311;50.866;4.332;2023-02-28T14:21:10;2.85;;;1.10;;
24151;SDS011;12311;50.866;4.332;2023-02-28T14:31:39;3.72;;;2.25;;
24151;SDS011;12311;50.866;4.332;2023-02-28T14:34:26;2.38;;;1.25;;
24151;SDS011;12311;50.866;4.332;2023-02-28T14:37:01;3.08;;;1.00;;
24151;SDS011;12311;50.866;4.332;2023-02-28T14:39:28;1.80;;;1.25;;
24151;SDS011;12311;50.866;4.332;2023-02-28T14:41:58;3.05;;;1.75;;
24151;SDS011;12311;50.866;4.332;2023-02-28T14:44:28;2.03;;;1.13;;
24151;SDS011;12311;50.866;4.332;2023-02-28T14:49:28;2.65;;;1.75;;
24151;SDS011;12311;50.866;4.332;2023-02-28T14:54:41;3.20;;;1.58;;
24151;SDS011;12311;50.866;4.332;2023-02-28T14:57:19;3.15;;;2.33;;
24151;SDS011;12311;50.866;4.332;2023-02-28T15:02:37;2.00;;;1.27;;
24151;SDS011;12311;50.866;4.332;2023-02-28T15:05:16;1.60;;;1.27;;
24151;SDS011;12311;50.866;4.332;2023-02-28T15:07:47;3.00;;;1.52;;
24151;SDS011;12311;50.866;4.332;2023-02-28T15:10:26;1.38;;;1.15;;
24151;SDS011;12311;50.866;4.332;2023-02-28T15:12:54;2.22;;;1.30;;
24151;SDS011;12311;50.866;4.332;2023-02-28T15:15:26;4.65;;;1.17;;
24151;SDS011;12311;50.866;4.332;2023-02-28T15:20:35;2.50;;;1.38;;
24151;SDS011;12311;50.866;4.332;2023-02-28T15:23:05;5.53;;;1.58;;
24151;SDS011;12311;50.866;4.332;2023-02-28T15:25:31;4.20;;;2.05;;
24151;SDS011;12311;50.866;4.332;2023-02-28T15:27:57;2.05;;;1.50;;
24151;SDS011;12311;50.866;4.332;2023-02-28T15:30:29;7.65;;;2.17;;
24151;SDS011;12311;50.866;4.332;2023-02-28T15:35:38;3.72;;;1.50;;
24151;SDS011;12311;50.866;4.332;2023-02-28T15:38:14;3.38;;;1.75;;
24151;SDS011;12311;50.866;4.332;2023-02-28T15:40:43;3.05;;;1.40;;
24151;SDS011;12311;50.866;4.332;2023-02-28T15:43:25;2.47;;;1.77;;
24151;SDS011;12311;50.866;4.332;2023-02-28T15:45:55;1.38;;;1.20;;
24151;SDS011;12311;50.866;4.332;2023-02-28T15:48:30;2.50;;;1.23;;
24151;SDS011;12311;50.866;4.332;2023-02-28T15:50:58;3.97;;;1.35;;
24151;SDS011;12311;50.866;4.332;2023-02-28T15:54:00;2.92;;;1.63;;
24151;SDS011;12311;50.866;4.332;2023-02-28T15:56:34;1.38;;;1.17;;
24151;SDS011;12311;50.866;4.332;2023-02-28T15:59:08;1.73;;;1.33;;
24151;SDS011;12311;50.866;4.332;2023-02-28T16:01:41;3.55;;;1.77;;
24151;SDS011;12311;50.866;4.332;2023-02-28T16:04:14;2.72;;;1.67;;
24151;SDS011;12311;50.866;4.332;2023-02-28T16:06:45;3.65;;;1.58;;
24151;SDS011;12311;50.866;4.332;2023-02-28T16:09:16;4.90;;;1.88;;
24151;SDS011;12311;50.866;4.332;2023-02-28T16:11:43;2.28;;;1.25;;
24151;SDS011;12311;50.866;4.332;2023-02-28T16:14:13;2.13;;;1.40;;
24151;SDS011;12311;50.866;4.332;2023-02-28T16:16:43;1.80;;;1.33;;
24151;SDS011;12311;50.866;4.332;2023-02-28T16:19:12;4.07;;;1.60;;
24151;SDS011;12311;50.866;4.332;2023-02-28T16:21:38;6.60;;;1.48;;
24151;SDS011;12311;50.866;4.332;2023-02-28T16:24:04;2.35;;;1.30;;
24151;SDS011;12311;50.866;4.332;2023-02-28T16:26:33;4.43;;;1.92;;
24151;SDS011;12311;50.866;4.332;2023-02-28T16:29:02;2.58;;;1.70;;
24151;SDS011;12311;50.866;4.332;2023-02-28T16:31:29;2.10;;;1.40;;
24151;SDS011;12311;50.866;4.332;2023-02-28T16:33:55;2.97;;;1.55;;
24151;SDS011;12311;50.866;4.332;2023-02-28T16:36:22;3.05;;;1.35;;
24151;SDS011;12311;50.866;4.332;2023-02-28T16:38:51;3.25;;;1.42;;
24151;SDS011;12311;50.866;4.332;2023-02-28T16:41:21;2.55;;;1.42;;
24151;SDS011;12311;50.866;4.332;2023-02-28T16:43:50;1.85;;;1.42;;
24151;SDS011;12311;50.866;4.332;2023-02-28T16:46:18;1.98;;;1.20;;
24151;SDS011;12311;50.866;4.332;2023-02-28T16:48:45;2.67;;;1.00;;
24151;SDS011;12311;50.866;4.332;2023-02-28T16:51:14;2.47;;;1.52;;
24151;SDS011;12311;50.866;4.332;2023-02-28T16:53:40;2.55;;;1.27;;
24151;SDS011;12311;50.866;4.332;2023-02-28T16:56:10;2.20;;;1.25;;
24151;SDS011;12311;50.866;4.332;2023-02-28T16:58:46;8.77;;;1.30;;
24151;SDS011;12311;50.866;4.332;2023-02-28T17:01:12;3.42;;;1.58;;
24151;SDS011;12311;50.866;4.332;2023-02-28T17:03:38;3.30;;;1.65;;
24151;SDS011;12311;50.866;4.332;2023-02-28T17:06:05;2.72;;;1.30;;
24151;SDS011;12311;50.866;4.332;2023-02-28T17:08:40;1.27;;;1.10;;
24151;SDS011;12311;50.866;4.332;2023-02-28T17:11:06;2.30;;;1.52;;
24151;SDS011;12311;50.866;4.332;2023-02-28T17:13:33;3.78;;;1.42;;
24151;SDS011;12311;50.866;4.332;2023-02-28T17:15:59;3.15;;;1.80;;
24151;SDS011;12311;50.866;4.332;2023-02-28T17:18:25;6.95;;;1.73;;
24151;SDS011;12311;50.866;4.332;2023-02-28T17:20:51;4.50;;;1.50;;
24151;SDS011;12311;50.866;4.332;2023-02-28T17:23:17;2.25;;;1.58;;
24151;SDS011;12311;50.866;4.332;2023-02-28T17:25:43;2.97;;;1.67;;
24151;SDS011;12311;50.866;4.332;2023-02-28T17:28:18;3.00;;;1.63;;
24151;SDS011;12311;50.866;4.332;2023-02-28T17:30:45;1.67;;;1.40;;
24151;SDS011;12311;50.866;4.332;2023-02-28T17:33:12;3.40;;;1.52;;
24151;SDS011;12311;50.866;4.332;2023-02-28T17:35:38;1.20;;;1.08;;
24151;SDS011;12311;50.866;4.332;2023-02-28T17:38:03;1.63;;;1.48;;
24151;SDS011;12311;50.866;4.332;2023-02-28T17:40:29;1.67;;;1.40;;
24151;SDS011;12311;50.866;4.332;2023-02-28T17:42:55;4.07;;;1.35;;
24151;SDS011;12311;50.866;4.332;2023-02-28T17:45:21;4.00;;;1.70;;
24151;SDS011;12311;50.866;4.332;2023-02-28T17:47:48;2.38;;;1.42;;
24151;SDS011;12311;50.866;4.332;2023-02-28T17:50:18;2.33;;;1.23;;
24151;SDS011;12311;50.866;4.332;2023-02-28T17:52:46;2.25;;;1.48;;
24151;SDS011;12311;50.866;4.332;2023-02-28T17:55:12;7.65;;;1.48;;
24151;SDS011;12311;50.866;4.332;2023-02-28T17:57:38;7.38;;;1.90;;
24151;SDS011;12311;50.866;4.332;2023-02-28T18:00:06;3.65;;;1.73;;
24151;SDS011;12311;50.866;4.332;2023-02-28T18:02:33;4.97;;;1.67;;
24151;SDS011;12311;50.866;4.332;2023-02-28T18:04:59;1.88;;;1.48;;
24151;SDS011;12311;50.866;4.332;2023-02-28T18:07:24;6.28;;;1.48;;
24151;SDS011;12311;50.866;4.332;2023-02-28T18:09:50;4.35;;;2.13;;
24151;SDS011;12311;50.866;4.332;2023-02-28T18:12:16;3.17;;;2.20;;
24151;SDS011;12311;50.866;4.332;2023-02-28T18:14:41;3.15;;;2.20;;
24151;SDS011;12311;50.866;4.332;2023-02-28T18:17:09;9.48;;;2.67;;
24151;SDS011;12311;50.866;4.332;2023-02-28T18:19:37;3.13;;;2.10;;
24151;SDS011;12311;50.866;4.332;2023-02-28T18:22:03;7.38;;;3.70;;
24151;SDS011;12311;50.866;4.332;2023-02-28T18:24:32;7.55;;;2.63;;
24151;SDS011;12311;50.866;4.332;2023-02-28T18:26:58;10.07;;;2.33;;
24151;SDS011;12311;50.866;4.332;2023-02-28T18:29:25;2.67;;;2.45;;
24151;SDS011;12311;50.866;4.332;2023-02-28T18:31:52;5.00;;;2.00;;
24151;SDS011;12311;50.866;4.332;2023-02-28T18:34:19;4.22;;;2.15;;
24151;SDS011;12311;50.866;4.332;2023-02-28T18:36:45;3.17;;;1.75;;
24151;SDS011;12311;50.866;4.332;2023-02-28T18:39:13;4.90;;;1.77;;
24151;SDS011;12311;50.866;4.332;2023-02-28T18:41:39;2.63;;;1.90;;
24151;SDS011;12311;50.866;4.332;2023-02-28T18:44:05;2.25;;;1.58;;
24151;SDS011;12311;50.866;4.332;2023-02-28T18:46:31;4.50;;;1.60;;
24151;SDS011;12311;50.866;4.332;2023-02-28T18:48:57;3.65;;;1.50;;
24151;SDS011;12311;50.866;4.332;2023-02-28T18:51:24;6.07;;;2.08;;
24151;SDS011;12311;50.866;4.332;2023-02-28T18:53:51;4.75;;;1.98;;
24151;SDS011;12311;50.866;4.332;2023-02-28T18:56:18;2.88;;;2.15;;
24151;SDS011;12311;50.866;4.332;2023-02-28T18:58:47;1.70;;;1.52;;
24151;SDS011;12311;50.866;4.332;2023-02-28T19:01:24;9.40;;;2.08;;
24151;SDS011;12311;50.866;4.332;2023-02-28T19:03:53;3.90;;;1.98;;
24151;SDS011;12311;50.866;4.332;2023-02-28T19:06:20;2.92;;;2.00;;
24151;SDS011;12311;50.866;4.332;2023-02-28T19:08:46;4.40;;;1.90;;
24151;SDS011;12311;50.866;4.332;2023-02-28T19:11:16;2.55;;;1.67;;
24151;SDS011;12311;50.866;4.332;2023-02-28T19:13:43;4.45;;;2.40;;
24151;SDS011;12311;50.866;4.332;2023-02-28T19:16:10;5.32;;;2.00;;
24151;SDS011;12311;50.866;4.332;2023-02-28T19:18:37;4.38;;;2.65;;
24151;SDS011;12311;50.866;4.332;2023-02-28T19:21:05;7.10;;;2.60;;
24151;SDS011;12311;50.866;4.332;2023-02-28T19:23:34;11.23;;;2.40;;
24151;SDS011;12311;50.866;4.332;2023-02-28T19:26:04;6.97;;;3.00;;
24151;SDS011;12311;50.866;4.332;2023-02-28T19:28:31;5.07;;;3.10;;
24151;SDS011;12311;50.866;4.332;2023-02-28T19:30:56;5.53;;;2.92;;
24151;SDS011;12311;50.866;4.332;2023-02-28T19:33:22;4.93;;;2.60;;
24151;SDS011;12311;50.866;4.332;2023-02-28T19:35:48;4.20;;;2.38;;
24151;SDS011;12311;50.866;4.332;2023-02-28T19:38:13;6.95;;;3.15;;
24151;SDS011;12311;50.866;4.332;2023-02-28T19:40:39;5.40;;;2.97;;
24151;SDS011;12311;50.866;4.332;2023-02-28T19:43:05;7.47;;;2.22;;
24151;SDS011;12311;50.866;4.332;2023-02-28T19:45:32;3.03;;;2.50;;
24151;SDS011;12311;50.866;4.332;2023-02-28T19:47:58;4.32;;;2.70;;
24151;SDS011;12311;50.866;4.332;2023-02-28T19:50:24;5.30;;;2.17;;
24151;SDS011;12311;50.866;4.332;2023-02-28T19:52:50;4.47;;;2.55;;
24151;SDS011;12311;50.866;4.332;2023-02-28T19:55:16;7.38;;;3.05;;
24151;SDS011;12311;50.866;4.332;2023-02-28T19:57:42;2.65;;;2.05;;
24151;SDS011;12311;50.866;4.332;2023-02-28T20:00:08;5.63;;;2.58;;
24151;SDS011;12311;50.866;4.332;2023-02-28T20:02:36;6.10;;;2.97;;
24151;SDS011;12311;50.866;4.332;2023-02-28T20:05:02;5.68;;;3.15;;
24151;SDS011;12311;50.866;4.332;2023-02-28T20:07:28;5.80;;;3.08;;
24151;SDS011;12311;50.866;4.332;2023-02-28T20:09:54;4.82;;;2.67;;
24151;SDS011;12311;50.866;4.332;2023-02-28T20:12:19;7.18;;;3.10;;
24151;SDS011;12311;50.866;4.332;2023-02-28T20:14:50;8.43;;;2.88;;
24151;SDS011;12311;50.866;4.332;2023-02-28T20:17:17;8.15;;;3.08;;
24151;SDS011;12311;50.866;4.332;2023-02-28T20:19:43;6.07;;;3.10;;
24151;SDS011;12311;50.866;4.332;2023-02-28T20:22:09;4.63;;;2.65;;
24151;SDS011;12311;50.866;4.332;2023-02-28T20:24:35;8.98;;;2.42;;
24151;SDS011;12311;50.866;4.332;2023-02-28T20:27:01;5.85;;;2.47;;
24151;SDS011;12311;50.866;4.332;2023-02-28T20:29:27;5.57;;;2.75;;
24151;SDS011;12311;50.866;4.332;2023-02-28T20:31:54;4.90;;;2.45;;
24151;SDS011;12311;50.866;4.332;2023-02-28T20:34:20;5.97;;;2.50;;
24151;SDS011;12311;50.866;4.332;2023-02-28T20:36:47;4.68;;;2.70;;
24151;SDS011;12311;50.866;4.332;2023-02-28T20:39:13;4.63;;;2.10;;
24151;SDS011;12311;50.866;4.332;2023-02-28T20:41:39;6.90;;;2.78;;
24151;SDS011;12311;50.866;4.332;2023-02-28T20:44:05;7.63;;;3.28;;
24151;SDS011;12311;50.866;4.332;2023-02-28T20:46:31;7.65;;;3.47;;
24151;SDS011;12311;50.866;4.332;2023-02-28T20:48:58;5.78;;;2.60;;
24151;SDS011;12311;50.866;4.332;2023-02-28T20:51:24;6.35;;;3.05;;
24151;SDS011;12311;50.866;4.332;2023-02-28T20:53:50;9.15;;;3.35;;
24151;SDS011;12311;50.866;4.332;2023-02-28T20:56:16;4.82;;;2.85;;
24151;SDS011;12311;50.866;4.332;2023-02-28T20:58:44;9.88;;;3.83;;
24151;SDS011;12311;50.866;4.332;2023-02-28T21:01:16;5.53;;;2.42;;
24151;SDS011;12311;50.866;4.332;2023-02-28T21:06:13;4.18;;;2.08;;
24151;SDS011;12311;50.866;4.332;2023-02-28T21:08:40;5.03;;;2.65;;
24151;SDS011;12311;50.866;4.332;2023-02-28T21:11:23;3.15;;;1.73;;
24151;SDS011;12311;50.866;4.332;2023-02-28T21:13:50;5.95;;;2.50;;
24151;SDS011;12311;50.866;4.332;2023-02-28T21:16:18;4.60;;;2.22;;
24151;SDS011;12311;50.866;4.332;2023-02-28T21:18:46;7.30;;;2.10;;
24151;SDS011;12311;50.866;4.332;2023-02-28T21:21:13;4.68;;;2.47;;
